world map with EFSA marked

EFSA - Airport

This information may not be accurate or current and is not valid for navigation or flight planning. No warranty of fitness for any purpose is made or implied.

flag of Finland

Donate via PayPal

Additional information is available on the NEW Great Circle Mapper

Location
City:  Savonlinna, Etelä-Savo (Södra Savolax;Southern Savonia), Finland
ICAO / IATA:EFSA / SVL

Details
Type:Airport (Aerodrome, Airfield)
Use:Public/Civil
Latitude:61°56'35"N (61.943064)
Longitude:28°56'42"E (28.945136)
Datum:WGS 1984
Elevation:311 ft (95 m)
Runways:1
Longest:7546 × 148 ft (2300 × 45 m)

Time
Timezone:UTC+2 (DST+5)
Local Time:

Weather
METAR:EFSA  181820Z AUTO 12003KT 5000 -SN BR OVC023 M05/M06 Q1029
TAF:EFSA  (expired)

Related Locations
Nearby:
Farthest:NZTB: 11039 mi / 17766 km
Terra Nova Bay [Mario Zucchelli Station], AQ

Find:

   beyond  
but within

Other Information
Maps:
Sources:

  


 


Great Circle Mapper   Great Circle Mapper
Great Circle Mapper FAQ   Great Circle Mapper FAQ
  Karl's Home Page
KLS²   KLS² Home
   GC on Facebook
Airlines of the World   Airlines of the World
Donate via PayPal


Copyright © 2004-2018, Karl L. Swartz. All rights reserved.
All trademarks mentioned herein belong to their respective owners.

Please see credits for attribution and copyright information.

Karl Swartz <karl@kls2.com>
  Powered by FreeBSD
Valid HTML 4.01!
Labeled with ICRA
hCard Microformat
Geo Microformat